createdAt,value
2022-12-31T00:00:23.007Z,49.25
2022-12-31T00:02:49.986Z,46.63
2022-12-31T00:05:17.068Z,52.63
2022-12-31T00:07:44.028Z,46.63
2022-12-31T00:10:11.750Z,56.55
2022-12-31T00:12:38.647Z,71.53
2022-12-31T00:15:06.297Z,59.75
2022-12-31T00:17:33.264Z,62.30
2022-12-31T00:20:00.301Z,55.67
2022-12-31T00:22:27.946Z,66.80
2022-12-31T00:24:54.862Z,72.18
2022-12-31T00:27:22.777Z,47.58
2022-12-31T00:29:49.769Z,63.25
2022-12-31T00:32:16.688Z,73.07
2022-12-31T00:34:43.683Z,74.90
2022-12-31T00:37:10.663Z,59.83
2022-12-31T00:39:37.636Z,35.08
2022-12-31T00:42:04.781Z,48.65
2022-12-31T00:44:31.820Z,43.78
2022-12-31T00:46:58.771Z,46.95
2022-12-31T00:49:25.710Z,22.83
2022-12-31T00:51:52.594Z,32.00
2022-12-31T00:54:19.513Z,44.88
2022-12-31T00:56:46.536Z,42.42
2022-12-31T00:59:13.397Z,42.35
2022-12-31T01:01:42.245Z,38.78
2022-12-31T01:04:12.735Z,50.85
2022-12-31T01:06:40.194Z,74.88
2022-12-31T01:09:07.959Z,42.58
2022-12-31T01:11:35.070Z,55.40
2022-12-31T01:14:20.897Z,62.28
2022-12-31T01:16:52.718Z,52.35
2022-12-31T01:19:25.569Z,78.72
2022-12-31T01:21:53.573Z,60.17
2022-12-31T01:24:21.147Z,64.35
2022-12-31T01:26:48.081Z,60.25
2022-12-31T01:29:14.978Z,58.92
2022-12-31T01:31:41.898Z,82.30
2022-12-31T01:34:08.814Z,75.90
2022-12-31T01:36:37.439Z,55.75
2022-12-31T01:39:06.568Z,56.53
2022-12-31T01:41:37.728Z,67.22
2022-12-31T01:46:49.935Z,57.10
2022-12-31T01:49:33.165Z,65.07
2022-12-31T01:52:21.073Z,59.35
2022-12-31T01:54:55.987Z,64.78
2022-12-31T01:57:24.989Z,77.30
2022-12-31T01:59:53.582Z,59.60
2022-12-31T02:02:20.664Z,52.10
2022-12-31T02:04:51.284Z,47.00
2022-12-31T02:07:18.110Z,70.47
2022-12-31T02:09:45.211Z,55.28
2022-12-31T02:12:12.309Z,55.92
2022-12-31T02:14:52.196Z,60.08
2022-12-31T02:17:46.079Z,60.25
2022-12-31T02:20:40.459Z,47.92
2022-12-31T02:23:39.488Z,50.00
2022-12-31T02:26:12.505Z,43.42
2022-12-31T02:28:45.093Z,52.55
2022-12-31T02:31:23.071Z,61.65
2022-12-31T02:34:07.754Z,75.57
2022-12-31T02:36:38.642Z,56.17
2022-12-31T02:39:07.868Z,73.35
2022-12-31T02:41:54.074Z,62.08
2022-12-31T02:44:28.581Z,69.47
2022-12-31T02:47:16.694Z,67.55
2022-12-31T02:49:53.290Z,59.15
2022-12-31T02:52:44.136Z,77.45
2022-12-31T02:55:26.581Z,63.67
2022-12-31T02:58:19.094Z,76.63
2022-12-31T03:01:10.155Z,74.95
2022-12-31T03:03:38.457Z,83.57
2022-12-31T03:06:08.114Z,65.32
2022-12-31T03:08:56.152Z,85.47
2022-12-31T03:11:41.857Z,52.63
2022-12-31T03:14:08.715Z,76.45
2022-12-31T03:16:35.590Z,80.43
2022-12-31T03:19:21.112Z,58.35
2022-12-31T03:22:06.768Z,84.05
2022-12-31T03:24:52.075Z,80.10
2022-12-31T03:27:18.901Z,57.95
2022-12-31T03:29:45.759Z,78.65
2022-12-31T03:32:12.744Z,56.72
2022-12-31T03:34:39.585Z,59.38
2022-12-31T03:37:06.426Z,47.67
2022-12-31T03:39:33.254Z,58.67
2022-12-31T03:42:00.167Z,73.15
2022-12-31T03:44:26.973Z,79.97
2022-12-31T03:46:53.884Z,92.75
2022-12-31T03:49:20.717Z,55.30
2022-12-31T03:51:47.550Z,67.20
2022-12-31T03:54:14.402Z,68.25
2022-12-31T03:56:41.254Z,83.90
2022-12-31T03:59:08.064Z,57.88
2022-12-31T04:01:34.944Z,72.53
2022-12-31T04:04:01.845Z,80.32
2022-12-31T04:06:28.636Z,89.88
2022-12-31T04:08:55.482Z,92.40
2022-12-31T04:11:22.313Z,69.82
2022-12-31T04:13:49.145Z,61.70
2022-12-31T04:16:15.977Z,64.85
2022-12-31T04:18:42.851Z,80.30
2022-12-31T04:21:09.700Z,54.45
2022-12-31T04:23:36.552Z,93.13
2022-12-31T04:26:03.409Z,79.28
2022-12-31T04:28:30.224Z,79.47
2022-12-31T04:30:57.062Z,65.80
2022-12-31T04:33:23.870Z,64.35
2022-12-31T04:35:50.702Z,74.97
2022-12-31T04:38:17.751Z,55.17
2022-12-31T04:41:04.108Z,71.25
2022-12-31T04:43:31.791Z,43.58
2022-12-31T04:45:58.667Z,69.28
2022-12-31T04:48:25.546Z,64.40
2022-12-31T04:50:52.568Z,66.03
2022-12-31T04:53:19.401Z,73.88
2022-12-31T04:55:46.369Z,58.67
2022-12-31T04:58:13.195Z,52.80
2022-12-31T05:00:40.050Z,64.47
2022-12-31T05:03:07.020Z,70.85
2022-12-31T05:05:33.872Z,52.97
2022-12-31T05:08:00.687Z,50.22
2022-12-31T05:10:27.705Z,69.80
2022-12-31T05:12:54.522Z,47.88
2022-12-31T05:15:21.361Z,72.28
2022-12-31T05:17:48.154Z,47.65
2022-12-31T05:20:15.033Z,63.78
2022-12-31T05:22:41.827Z,57.47
2022-12-31T05:25:09.249Z,64.65
2022-12-31T05:27:38.133Z,63.65
2022-12-31T05:30:06.297Z,69.38
2022-12-31T05:32:33.922Z,59.95
2022-12-31T05:35:01.036Z,85.93
2022-12-31T05:37:31.190Z,77.70
2022-12-31T05:39:58.314Z,47.42
2022-12-31T05:42:25.171Z,81.55
2022-12-31T05:44:52.042Z,71.32
2022-12-31T05:47:18.917Z,52.20
2022-12-31T05:49:45.759Z,71.30
2022-12-31T05:52:12.827Z,58.28
2022-12-31T05:54:39.824Z,63.03
2022-12-31T05:57:07.396Z,62.00
2022-12-31T05:59:34.337Z,68.80
2022-12-31T06:02:01.336Z,68.75
2022-12-31T06:04:28.274Z,57.95
2022-12-31T06:06:55.089Z,51.85
2022-12-31T06:09:22.431Z,63.95
2022-12-31T06:11:49.754Z,78.90
2022-12-31T06:14:16.858Z,48.40
2022-12-31T06:16:43.700Z,52.30
2022-12-31T06:19:10.506Z,54.63
2022-12-31T06:21:37.376Z,43.78
2022-12-31T06:24:04.603Z,32.50
2022-12-31T06:26:31.438Z,70.95
2022-12-31T06:28:58.264Z,58.67
2022-12-31T06:31:25.113Z,72.70
2022-12-31T06:33:51.998Z,66.70
2022-12-31T06:36:19.375Z,75.72
2022-12-31T06:38:46.272Z,65.60
2022-12-31T06:41:16.481Z,48.08
2022-12-31T06:43:43.695Z,70.50
2022-12-31T06:46:13.277Z,54.20
2022-12-31T06:48:43.185Z,29.50
2022-12-31T06:51:17.026Z,35.22
2022-12-31T06:53:49.826Z,36.35
2022-12-31T06:56:33.150Z,48.05
2022-12-31T06:59:01.101Z,57.40
2022-12-31T07:01:57.381Z,49.83
2022-12-31T07:04:55.293Z,46.30
2022-12-31T07:07:31.213Z,44.85
2022-12-31T07:10:01.793Z,34.70
2022-12-31T07:12:53.551Z,41.03
2022-12-31T07:15:37.038Z,34.38
2022-12-31T07:18:15.647Z,43.83
2022-12-31T07:20:42.693Z,33.35
2022-12-31T07:23:09.831Z,43.05
2022-12-31T07:25:41.341Z,29.15
2022-12-31T07:28:29.612Z,64.28
2022-12-31T07:31:29.932Z,62.20
2022-12-31T07:34:16.702Z,51.78
2022-12-31T07:36:58.462Z,57.38
2022-12-31T07:39:43.905Z,44.47
2022-12-31T07:42:24.508Z,40.55
2022-12-31T07:45:14.190Z,52.03
2022-12-31T07:47:41.313Z,36.65
2022-12-31T07:50:15.253Z,26.80
2022-12-31T07:52:42.477Z,32.05
2022-12-31T07:55:11.017Z,20.88
2022-12-31T07:58:03.638Z,24.08
2022-12-31T08:00:31.526Z,39.40
2022-12-31T08:03:23.181Z,38.63
2022-12-31T08:05:59.736Z,37.67
2022-12-31T08:08:43.509Z,30.60
2022-12-31T08:11:35.248Z,42.17
2022-12-31T08:14:02.706Z,36.17
2022-12-31T08:16:30.660Z,26.85
2022-12-31T08:18:57.885Z,84.32
2022-12-31T08:21:47.568Z,70.70
2022-12-31T08:24:20.488Z,51.85
2022-12-31T08:27:05.113Z,40.97
2022-12-31T08:29:40.835Z,25.23
2022-12-31T08:32:20.758Z,39.78
2022-12-31T08:35:15.204Z,30.75
2022-12-31T08:38:00.924Z,53.08
2022-12-31T08:40:39.569Z,50.30
2022-12-31T08:43:18.660Z,57.40
2022-12-31T08:45:53.604Z,53.97
2022-12-31T08:48:39.360Z,50.70
2022-12-31T08:51:07.365Z,40.35
2022-12-31T08:53:35.227Z,51.78
2022-12-31T08:56:13.769Z,46.00
2022-12-31T08:58:52.757Z,55.80
2022-12-31T09:01:27.556Z,73.38
2022-12-31T09:04:14.363Z,54.25
2022-12-31T09:07:03.109Z,39.60
2022-12-31T09:10:03.725Z,52.10
2022-12-31T09:12:30.574Z,32.57
2022-12-31T09:15:08.255Z,20.08
2022-12-31T09:17:51.113Z,15.77
2022-12-31T09:20:41.865Z,39.60
2022-12-31T09:23:11.703Z,30.00
2022-12-31T09:25:47.195Z,25.17
2022-12-31T09:28:26.956Z,32.38
2022-12-31T09:31:26.658Z,23.98
2022-12-31T09:34:16.759Z,37.00
2022-12-31T09:36:53.088Z,33.60
2022-12-31T09:39:28.306Z,18.23
2022-12-31T09:42:11.928Z,34.65
2022-12-31T09:44:47.856Z,31.52
2022-12-31T09:47:29.209Z,18.10
2022-12-31T09:50:01.844Z,48.92
2022-12-31T09:52:51.564Z,52.30
2022-12-31T09:55:34.295Z,35.67
2022-12-31T09:58:19.864Z,20.90
2022-12-31T10:00:56.296Z,35.85
2022-12-31T10:03:37.001Z,27.17
2022-12-31T10:06:27.303Z,44.00
2022-12-31T10:09:15.605Z,89.90
2022-12-31T10:12:03.664Z,80.55
2022-12-31T10:14:58.177Z,55.72
2022-12-31T10:17:42.246Z,74.72
2022-12-31T10:20:33.770Z,68.75
2022-12-31T10:23:28.571Z,90.93
2022-12-31T10:26:21.478Z,81.22
2022-12-31T10:29:04.731Z,110.53
2022-12-31T10:32:19.422Z,45.65
2022-12-31T10:35:01.228Z,79.80
2022-12-31T10:37:47.002Z,62.63
2022-12-31T10:40:29.130Z,103.85
2022-12-31T10:43:21.627Z,64.35
2022-12-31T10:46:28.540Z,57.55
2022-12-31T10:49:07.297Z,40.70
2022-12-31T10:51:46.151Z,34.38
2022-12-31T10:54:31.701Z,54.33
2022-12-31T10:57:36.774Z,53.70
2022-12-31T11:00:23.130Z,61.45
2022-12-31T11:03:37.540Z,21.52
2022-12-31T11:06:26.602Z,35.08
2022-12-31T11:09:34.501Z,43.17
2022-12-31T11:12:11.157Z,41.80
2022-12-31T11:14:57.924Z,22.95
2022-12-31T11:17:39.897Z,14.77
2022-12-31T11:20:23.939Z,27.73
2022-12-31T11:22:59.838Z,20.17
2022-12-31T11:26:17.674Z,37.63
2022-12-31T11:29:38.612Z,20.25
2022-12-31T11:32:14.140Z,27.75
2022-12-31T11:35:03.661Z,42.22
2022-12-31T11:37:48.441Z,11.13
2022-12-31T11:40:56.554Z,10.27
2022-12-31T11:43:28.397Z,16.75
2022-12-31T11:46:19.563Z,6.13
2022-12-31T11:48:56.654Z,13.30
2022-12-31T11:51:38.106Z,66.85
2022-12-31T11:54:26.280Z,71.07
2022-12-31T11:57:11.263Z,83.13
2022-12-31T11:59:38.180Z,65.97
2022-12-31T12:02:28.289Z,76.30
2022-12-31T12:05:01.695Z,70.80
2022-12-31T12:07:33.899Z,54.65
2022-12-31T12:10:04.757Z,32.42
2022-12-31T12:12:42.503Z,25.95
2022-12-31T12:15:11.479Z,15.60
2022-12-31T12:17:39.647Z,7.75
2022-12-31T12:20:18.949Z,6.85
2022-12-31T12:22:54.116Z,13.82
2022-12-31T12:25:24.724Z,20.25
2022-12-31T12:27:52.441Z,28.17
2022-12-31T12:30:19.680Z,15.23
2022-12-31T12:32:58.959Z,21.10
2022-12-31T12:35:27.673Z,15.65
2022-12-31T12:38:14.054Z,23.60
2022-12-31T12:40:41.671Z,29.67
2022-12-31T12:43:26.488Z,29.00
2022-12-31T12:45:56.457Z,22.20
2022-12-31T12:48:35.196Z,30.48
2022-12-31T12:51:19.411Z,43.67
2022-12-31T12:53:52.148Z,27.00
2022-12-31T12:56:45.316Z,29.42
2022-12-31T12:59:49.637Z,33.88
2022-12-31T13:02:46.664Z,28.95
2022-12-31T13:05:34.975Z,31.60
2022-12-31T13:08:31.007Z,39.10
2022-12-31T13:11:03.935Z,41.13
2022-12-31T13:13:33.719Z,31.02
2022-12-31T13:16:08.475Z,34.05
2022-12-31T13:19:02.586Z,62.90
2022-12-31T13:21:52.831Z,58.08
2022-12-31T13:24:30.993Z,49.30
2022-12-31T13:27:03.686Z,46.55
2022-12-31T13:29:35.216Z,35.00
2022-12-31T13:32:06.021Z,36.85
2022-12-31T13:34:39.160Z,30.10
2022-12-31T13:37:28.821Z,35.88
2022-12-31T13:40:05.250Z,46.80
2022-12-31T13:42:43.697Z,46.13
2022-12-31T13:45:17.350Z,29.40
2022-12-31T13:47:54.365Z,37.67
2022-12-31T13:50:38.306Z,32.15
2022-12-31T13:53:27.204Z,16.08
2022-12-31T13:56:05.453Z,24.98
2022-12-31T13:58:32.403Z,22.65
2022-12-31T14:01:12.267Z,31.13
2022-12-31T14:04:08.482Z,18.80
2022-12-31T14:06:47.608Z,29.58
2022-12-31T14:09:27.096Z,18.52
2022-12-31T14:12:08.662Z,18.95
2022-12-31T14:14:53.561Z,33.42
2022-12-31T14:17:39.410Z,21.17
2022-12-31T14:20:19.077Z,22.02
2022-12-31T14:22:52.395Z,17.23
2022-12-31T14:25:44.804Z,32.20
2022-12-31T14:28:24.452Z,48.15
2022-12-31T14:30:57.177Z,27.88
2022-12-31T14:33:30.091Z,24.27
2022-12-31T14:36:09.947Z,24.70
2022-12-31T14:38:49.740Z,36.93
2022-12-31T14:41:22.829Z,40.83
2022-12-31T14:44:08.654Z,30.90
2022-12-31T14:46:47.545Z,22.92
2022-12-31T14:49:14.387Z,39.88
2022-12-31T14:51:42.104Z,24.27
2022-12-31T14:54:34.497Z,27.48
2022-12-31T14:57:24.399Z,30.08
2022-12-31T14:59:59.324Z,28.20
2022-12-31T15:02:31.966Z,24.42
2022-12-31T15:05:11.959Z,24.92
2022-12-31T15:07:47.837Z,21.00
2022-12-31T15:10:34.322Z,20.08
2022-12-31T15:13:14.216Z,30.27
2022-12-31T15:15:44.293Z,24.77
2022-12-31T15:18:23.141Z,24.58
2022-12-31T15:21:13.540Z,21.05
2022-12-31T15:23:46.474Z,18.25
2022-12-31T15:26:47.634Z,23.58
2022-12-31T15:29:36.726Z,17.52
2022-12-31T15:32:07.863Z,30.88
2022-12-31T15:37:06.501Z,27.10
2022-12-31T15:39:40.557Z,99.82
2022-12-31T15:42:49.826Z,86.55
2022-12-31T15:45:41.701Z,48.85
2022-12-31T15:50:46.752Z,43.55
2022-12-31T15:53:39.002Z,60.38
2022-12-31T15:56:08.517Z,60.78
2022-12-31T15:58:36.938Z,40.80
2022-12-31T16:01:24.321Z,29.30
2022-12-31T16:04:05.932Z,16.35
2022-12-31T16:06:39.634Z,22.33
2022-12-31T16:09:20.193Z,17.33
2022-12-31T16:11:47.707Z,11.45
2022-12-31T16:14:23.902Z,30.80
2022-12-31T16:17:01.310Z,36.88
2022-12-31T16:19:50.091Z,24.35
2022-12-31T16:22:25.983Z,48.17
2022-12-31T16:27:45.889Z,32.45
2022-12-31T16:30:26.169Z,21.17
2022-12-31T16:33:01.319Z,25.45
2022-12-31T16:35:32.392Z,26.40
2022-12-31T16:38:13.066Z,20.55
2022-12-31T16:40:42.059Z,31.85
2022-12-31T16:43:29.760Z,29.95
2022-12-31T16:46:28.407Z,43.28
2022-12-31T16:48:59.611Z,32.13
2022-12-31T16:53:57.357Z,19.23
2022-12-31T16:56:37.417Z,23.25
2022-12-31T16:59:14.418Z,25.25
2022-12-31T17:01:42.953Z,32.53
2022-12-31T17:04:15.276Z,30.40
2022-12-31T17:06:43.245Z,31.02
2022-12-31T17:09:10.402Z,34.13
2022-12-31T17:11:42.831Z,27.25
2022-12-31T17:14:09.858Z,32.13
2022-12-31T17:17:01.389Z,45.42
2022-12-31T17:19:51.441Z,28.42
2022-12-31T17:22:34.322Z,25.55
2022-12-31T17:25:05.889Z,30.88
2022-12-31T17:27:34.142Z,27.45
2022-12-31T17:30:22.134Z,16.48
2022-12-31T17:32:50.673Z,19.05
2022-12-31T17:35:36.179Z,19.05
2022-12-31T17:38:23.474Z,21.35
2022-12-31T17:40:52.622Z,16.13
2022-12-31T17:43:22.221Z,23.60
2022-12-31T17:45:51.869Z,18.10
2022-12-31T17:48:21.926Z,25.38
2022-12-31T17:50:51.229Z,13.95
2022-12-31T17:53:18.554Z,21.88
2022-12-31T17:55:54.710Z,14.02
2022-12-31T17:58:29.785Z,38.10
2022-12-31T18:00:58.094Z,17.60
2022-12-31T18:03:25.249Z,22.70
2022-12-31T18:05:52.555Z,25.85
2022-12-31T18:08:20.027Z,19.90
2022-12-31T18:10:48.136Z,27.90
2022-12-31T18:13:25.000Z,23.88
2022-12-31T18:15:53.744Z,23.10
2022-12-31T18:18:25.511Z,54.13
2022-12-31T18:21:04.687Z,70.57
2022-12-31T18:23:41.515Z,64.68
2022-12-31T18:26:13.921Z,55.00
2022-12-31T18:28:41.485Z,67.00
2022-12-31T18:31:16.863Z,69.38
2022-12-31T18:33:45.740Z,33.03
2022-12-31T18:36:17.574Z,33.88
2022-12-31T18:38:44.553Z,36.13
2022-12-31T18:41:18.404Z,23.52
2022-12-31T18:43:45.692Z,30.02
2022-12-31T18:46:23.816Z,34.90
2022-12-31T18:48:50.849Z,72.43
2022-12-31T18:51:21.685Z,57.22
2022-12-31T18:53:51.323Z,44.17
2022-12-31T18:56:21.851Z,44.28
2022-12-31T18:58:49.287Z,54.38
2022-12-31T19:01:32.387Z,51.10
2022-12-31T19:04:14.460Z,44.00
2022-12-31T19:06:42.249Z,50.92
2022-12-31T19:09:30.809Z,54.05
2022-12-31T19:11:57.056Z,33.60
2022-12-31T19:14:26.168Z,40.67
2022-12-31T19:16:57.805Z,23.77
2022-12-31T19:19:25.581Z,29.88
2022-12-31T19:21:52.651Z,47.63
2022-12-31T19:24:26.975Z,33.45
2022-12-31T19:26:55.124Z,38.10
2022-12-31T19:29:25.540Z,48.03
2022-12-31T19:31:52.799Z,53.38
2022-12-31T19:34:19.857Z,41.28
2022-12-31T19:36:47.597Z,66.80
2022-12-31T19:39:20.433Z,46.17
2022-12-31T19:41:56.646Z,35.10
2022-12-31T19:44:25.916Z,36.60
2022-12-31T19:46:53.268Z,40.15
2022-12-31T19:49:21.065Z,30.42
2022-12-31T19:51:48.619Z,29.38
2022-12-31T19:54:16.310Z,26.35
2022-12-31T19:56:43.496Z,28.33
2022-12-31T19:59:11.891Z,31.55
2022-12-31T20:01:39.277Z,29.58
2022-12-31T20:04:06.489Z,19.45
2022-12-31T20:06:33.512Z,28.60
2022-12-31T20:09:00.608Z,48.47
2022-12-31T20:11:28.049Z,45.05
2022-12-31T20:13:55.738Z,48.92
2022-12-31T20:16:27.202Z,41.47
2022-12-31T20:18:55.160Z,17.23
2022-12-31T20:21:25.205Z,29.33
2022-12-31T20:23:54.687Z,25.95
2022-12-31T20:26:24.023Z,52.70
2022-12-31T20:28:51.505Z,40.80
2022-12-31T20:31:23.965Z,43.67
2022-12-31T20:33:51.614Z,51.67
2022-12-31T20:36:19.093Z,53.08
2022-12-31T20:38:46.549Z,49.63
2022-12-31T20:41:17.343Z,54.33
2022-12-31T20:43:45.546Z,47.38
2022-12-31T20:46:22.347Z,53.45
2022-12-31T20:48:51.399Z,53.00
2022-12-31T20:51:20.012Z,44.72
2022-12-31T20:54:02.410Z,45.15
2022-12-31T20:56:32.829Z,43.53
2022-12-31T20:59:00.449Z,55.42
2022-12-31T21:01:41.723Z,56.53
2022-12-31T21:04:15.757Z,55.80
2022-12-31T21:06:43.037Z,57.63
2022-12-31T21:09:10.692Z,90.07
2022-12-31T21:11:56.282Z,63.58
2022-12-31T21:14:23.717Z,38.58
2022-12-31T21:16:51.510Z,41.85
2022-12-31T21:19:18.644Z,37.05
2022-12-31T21:21:48.375Z,36.53
2022-12-31T21:24:23.480Z,29.23
2022-12-31T21:26:51.486Z,38.13
2022-12-31T21:29:18.637Z,45.38
2022-12-31T21:31:45.925Z,36.03
2022-12-31T21:34:13.106Z,28.13
2022-12-31T21:36:40.211Z,31.55
2022-12-31T21:39:07.439Z,44.13
2022-12-31T21:41:53.008Z,42.80
2022-12-31T21:44:25.319Z,37.40
2022-12-31T21:47:34.004Z,36.13
2022-12-31T21:49:50.162Z,73.25
2022-12-31T21:52:32.013Z,55.60
2022-12-31T21:55:19.755Z,59.70
2022-12-31T21:58:24.156Z,59.08
2022-12-31T22:00:54.119Z,53.20
2022-12-31T22:03:32.197Z,28.90
2022-12-31T22:06:12.661Z,34.55
2022-12-31T22:08:41.488Z,62.23
2022-12-31T22:11:09.171Z,50.40
2022-12-31T22:13:36.750Z,48.28
2022-12-31T22:16:05.656Z,36.30
2022-12-31T22:18:35.943Z,35.13
2022-12-31T22:21:03.961Z,43.72
2022-12-31T22:23:32.526Z,34.47
2022-12-31T22:26:00.229Z,19.40
2022-12-31T22:28:37.964Z,37.30
2022-12-31T22:31:06.207Z,36.00
2022-12-31T22:33:33.499Z,30.20
2022-12-31T22:36:11.075Z,21.90
2022-12-31T22:38:38.157Z,38.10
2022-12-31T22:41:26.485Z,31.77
2022-12-31T22:44:03.172Z,33.03
2022-12-31T22:46:31.133Z,28.42
2022-12-31T22:48:59.876Z,33.15
2022-12-31T22:51:54.791Z,37.10
2022-12-31T22:54:15.486Z,38.50
2022-12-31T22:56:42.857Z,28.70
2022-12-31T22:59:10.044Z,24.15
2022-12-31T23:01:37.138Z,26.77
2022-12-31T23:04:04.816Z,21.52
2022-12-31T23:06:33.057Z,26.10
2022-12-31T23:09:19.366Z,21.23
2022-12-31T23:11:46.366Z,25.52
2022-12-31T23:14:36.470Z,24.65
2022-12-31T23:17:29.665Z,18.20
2022-12-31T23:20:18.027Z,17.70
2022-12-31T23:23:03.950Z,19.05
2022-12-31T23:25:54.624Z,27.70
2022-12-31T23:28:24.128Z,25.88
2022-12-31T23:30:51.984Z,24.30
2022-12-31T23:33:24.572Z,29.50
2022-12-31T23:36:01.428Z,29.27
2022-12-31T23:38:28.320Z,21.50
2022-12-31T23:40:55.210Z,21.98
2022-12-31T23:43:22.786Z,19.42
2022-12-31T23:45:53.005Z,22.65
2022-12-31T23:48:20.263Z,22.40
2022-12-31T23:50:53.603Z,24.83
2022-12-31T23:53:22.302Z,34.42
2022-12-31T23:55:49.267Z,25.67
2022-12-31T23:58:16.763Z,13.27
